createdAt,value
2018-09-14T00:00:30.093Z,91.38
2018-09-14T00:02:58.639Z,92.37
2018-09-14T00:05:27.229Z,93.01
2018-09-14T00:07:56.283Z,92.05
2018-09-14T00:10:24.980Z,93.08
2018-09-14T00:12:53.794Z,92.42
2018-09-14T00:15:22.323Z,92.70
2018-09-14T00:17:51.121Z,92.75
2018-09-14T00:20:19.735Z,93.01
2018-09-14T00:22:49.535Z,92.54
2018-09-14T00:25:18.136Z,92.88
2018-09-14T00:27:46.800Z,93.16
2018-09-14T00:30:15.341Z,93.33
2018-09-14T00:32:43.900Z,92.58
2018-09-14T00:35:13.323Z,93.16
2018-09-14T00:37:42.033Z,92.88
2018-09-14T00:40:10.582Z,92.40
2018-09-14T00:42:39.132Z,92.96
2018-09-14T00:45:07.671Z,92.36
2018-09-14T00:47:36.346Z,92.91
2018-09-14T00:50:06.323Z,94.18
2018-09-14T00:52:35.929Z,94.64
2018-09-14T00:55:05.649Z,94.12
2018-09-14T00:57:34.739Z,94.75
2018-09-14T01:00:03.219Z,93.55
2018-09-14T01:02:32.018Z,93.25
2018-09-14T01:05:00.606Z,93.94
2018-09-14T01:07:29.188Z,94.05
2018-09-14T01:09:57.706Z,94.34
2018-09-14T01:12:26.309Z,93.03
2018-09-14T01:14:54.811Z,92.97
2018-09-14T01:17:23.517Z,92.48
2018-09-14T01:19:53.106Z,93.05
2018-09-14T01:22:21.590Z,92.49
2018-09-14T01:24:51.006Z,93.25
2018-09-14T01:27:19.536Z,93.91
2018-09-14T01:29:48.864Z,94.91
2018-09-14T01:32:17.374Z,93.91
2018-09-14T01:34:46.165Z,94.40
2018-09-14T01:37:15.145Z,94.37
2018-09-14T01:39:43.923Z,93.01
2018-09-14T01:42:14.081Z,93.06
2018-09-14T01:44:42.617Z,93.33
2018-09-14T01:47:11.335Z,93.05
2018-09-14T01:49:40.236Z,92.37
2018-09-14T01:52:08.848Z,93.16
2018-09-14T01:54:37.615Z,93.58
2018-09-14T01:57:06.454Z,93.92
2018-09-14T01:59:35.689Z,94.12
2018-09-14T02:02:04.316Z,92.67
2018-09-14T02:04:32.931Z,94.22
2018-09-14T02:07:01.684Z,93.96
2018-09-14T02:09:31.196Z,94.04
2018-09-14T02:11:59.779Z,94.36
2018-09-14T02:14:28.355Z,93.83
2018-09-14T02:16:56.781Z,94.13
2018-09-14T02:19:26.226Z,93.94
2018-09-14T02:21:55.519Z,94.07
2018-09-14T02:24:25.155Z,94.96
2018-09-14T02:26:53.647Z,94.31
2018-09-14T02:29:22.225Z,93.70
2018-09-14T02:31:50.744Z,94.23
2018-09-14T02:34:19.253Z,93.48
2018-09-14T02:36:48.089Z,93.42
2018-09-14T02:39:16.643Z,91.81
2018-09-14T02:41:45.507Z,91.61
2018-09-14T02:44:14.503Z,91.86
2018-09-14T02:46:43.007Z,92.73
2018-09-14T02:49:11.554Z,93.35
2018-09-14T02:51:40.261Z,92.51
2018-09-14T02:54:09.411Z,92.07
2018-09-14T02:56:38.505Z,91.86
2018-09-14T02:59:07.711Z,92.58
2018-09-14T03:01:36.357Z,92.97
2018-09-14T03:04:05.658Z,91.24
2018-09-14T03:06:34.308Z,91.25
2018-09-14T03:09:03.723Z,91.41
2018-09-14T03:11:32.866Z,91.25
2018-09-14T03:14:01.335Z,91.56
2018-09-14T03:16:29.817Z,90.63
2018-09-14T03:18:58.364Z,90.91
2018-09-14T03:21:27.527Z,91.77
2018-09-14T03:23:56.080Z,90.71
2018-09-14T03:26:24.553Z,91.55
2018-09-14T03:28:53.669Z,91.03
2018-09-14T03:31:22.439Z,91.89
2018-09-14T03:33:50.981Z,91.44
2018-09-14T03:36:19.535Z,92.12
2018-09-14T03:38:48.056Z,92.43
2018-09-14T03:41:16.579Z,91.77
2018-09-14T03:43:45.099Z,92.11
2018-09-14T03:46:13.675Z,92.28
2018-09-14T03:48:42.174Z,91.83
2018-09-14T03:51:11.354Z,93.03
2018-09-14T03:53:39.879Z,92.52
2018-09-14T03:56:08.424Z,92.78
2018-09-14T03:58:37.054Z,92.84
2018-09-14T04:01:06.259Z,92.12
2018-09-14T04:03:36.184Z,90.96
2018-09-14T04:06:04.781Z,90.86
2018-09-14T04:08:34.537Z,92.05
2018-09-14T04:11:03.011Z,91.51
2018-09-14T04:13:31.508Z,91.03
2018-09-14T04:16:00.320Z,92.47
2018-09-14T04:18:28.811Z,92.08
2018-09-14T04:20:58.807Z,92.13
2018-09-14T04:23:27.925Z,92.14
2018-09-14T04:25:56.593Z,90.91
2018-09-14T04:28:26.008Z,90.39
2018-09-14T04:30:55.111Z,90.96
2018-09-14T04:33:23.701Z,91.11
2018-09-14T04:35:52.223Z,91.05
2018-09-14T04:38:20.858Z,90.88
2018-09-14T04:40:49.795Z,90.61
2018-09-14T04:43:18.287Z,90.29
2018-09-14T04:45:46.854Z,91.06
2018-09-14T04:48:15.577Z,91.07
2018-09-14T04:50:44.548Z,91.84
2018-09-14T04:53:13.372Z,90.94
2018-09-14T04:55:41.880Z,92.01
2018-09-14T04:58:10.419Z,91.77
2018-09-14T05:00:38.878Z,90.73
2018-09-14T05:03:07.462Z,91.52
2018-09-14T05:05:36.219Z,92.62
2018-09-14T05:08:04.697Z,91.38
2018-09-14T05:10:33.761Z,91.71
2018-09-14T05:13:02.284Z,92.80
2018-09-14T05:15:30.873Z,91.76
2018-09-14T05:18:01.210Z,91.78
2018-09-14T05:20:29.764Z,91.06
2018-09-14T05:22:59.108Z,92.60
2018-09-14T05:25:27.678Z,92.13
2018-09-14T05:27:56.379Z,92.32
2018-09-14T05:30:24.883Z,92.68
2018-09-14T05:32:53.733Z,91.44
2018-09-14T05:35:22.260Z,92.62
2018-09-14T05:37:51.090Z,91.91
2018-09-14T05:40:19.712Z,91.25
2018-09-14T05:42:48.242Z,92.51
2018-09-14T05:45:16.869Z,90.27
2018-09-14T05:47:45.651Z,91.89
2018-09-14T05:50:14.755Z,90.54
2018-09-14T05:52:43.902Z,91.27
2018-09-14T05:55:12.494Z,91.95
2018-09-14T05:57:43.918Z,91.75
2018-09-14T06:00:12.606Z,92.27
2018-09-14T06:02:41.910Z,93.16
2018-09-14T06:05:10.430Z,92.70
2018-09-14T06:07:38.939Z,92.61
2018-09-14T06:10:08.106Z,92.79
2018-09-14T06:12:36.567Z,92.61
2018-09-14T06:15:04.994Z,91.84
2018-09-14T06:17:33.456Z,90.40
2018-09-14T06:20:01.954Z,90.88
2018-09-14T06:22:30.459Z,89.23
2018-09-14T06:24:58.937Z,90.26
2018-09-14T06:27:27.419Z,88.10
2018-09-14T06:29:55.899Z,87.04
2018-09-14T06:32:24.929Z,86.89
2018-09-14T06:34:53.518Z,85.60
2018-09-14T06:37:22.052Z,87.66
2018-09-14T06:39:53.022Z,85.91
2018-09-14T06:42:21.684Z,86.65
2018-09-14T06:44:50.398Z,86.47
2018-09-14T06:47:18.891Z,87.30
2018-09-14T06:49:47.420Z,84.46
2018-09-14T06:52:16.496Z,84.28
2018-09-14T06:54:45.585Z,85.53
2018-09-14T06:57:14.395Z,85.14
2018-09-14T06:59:43.390Z,85.91
2018-09-14T07:02:11.984Z,85.79
2018-09-14T07:04:40.632Z,86.86
2018-09-14T07:07:09.839Z,85.43
2018-09-14T07:09:38.393Z,84.19
2018-09-14T07:12:06.937Z,85.02
2018-09-14T07:14:35.427Z,83.62
2018-09-14T07:17:03.928Z,83.53
2018-09-14T07:19:33.266Z,83.53
2018-09-14T07:22:01.803Z,84.07
2018-09-14T07:24:30.394Z,83.08
2018-09-14T07:26:59.016Z,82.34
2018-09-14T07:29:27.557Z,83.42
2018-09-14T07:31:56.176Z,84.55
2018-09-14T07:34:24.641Z,85.36
2018-09-14T07:36:53.259Z,83.53
2018-09-14T07:39:22.036Z,84.36
2018-09-14T07:41:50.722Z,83.90
2018-09-14T07:44:20.378Z,83.93
2018-09-14T07:46:50.384Z,82.66
2018-09-14T07:49:18.876Z,79.90
2018-09-14T07:51:47.425Z,81.48
2018-09-14T07:54:16.020Z,82.68
2018-09-14T07:56:44.566Z,82.08
2018-09-14T07:59:13.700Z,81.74
2018-09-14T08:01:43.717Z,80.99
2018-09-14T08:04:12.322Z,81.10
2018-09-14T08:06:40.878Z,79.18
2018-09-14T08:09:11.650Z,80.58
2018-09-14T08:11:40.094Z,76.79
2018-09-14T08:14:09.093Z,77.74
2018-09-14T08:16:37.827Z,74.67
2018-09-14T08:19:06.901Z,75.75
2018-09-14T08:21:35.723Z,75.21
2018-09-14T08:24:05.155Z,74.62
2018-09-14T08:26:34.699Z,78.37
2018-09-14T08:29:03.639Z,73.71
2018-09-14T08:31:32.141Z,75.68
2018-09-14T08:34:01.382Z,73.36
2018-09-14T08:36:29.807Z,74.17
2018-09-14T08:38:58.271Z,76.26
2018-09-14T08:41:26.793Z,74.44
2018-09-14T08:43:55.331Z,73.49
2018-09-14T08:46:23.846Z,74.03
2018-09-14T08:48:52.445Z,75.81
2018-09-14T08:51:21.523Z,73.37
2018-09-14T08:53:50.062Z,74.01
2018-09-14T08:56:18.546Z,70.79
2018-09-14T08:58:47.108Z,70.43
2018-09-14T09:01:15.583Z,67.35
2018-09-14T09:03:44.719Z,67.27
2018-09-14T09:06:14.249Z,65.49
2018-09-14T09:08:42.788Z,65.14
2018-09-14T09:11:11.489Z,66.31
2018-09-14T09:13:40.005Z,67.01
2018-09-14T09:16:09.015Z,66.28
2018-09-14T09:18:37.521Z,64.48
2018-09-14T09:21:05.994Z,65.44
2018-09-14T09:23:34.478Z,65.72
2018-09-14T09:26:03.217Z,61.79
2018-09-14T09:28:32.307Z,62.74
2018-09-14T09:31:01.637Z,60.31
2018-09-14T09:33:30.214Z,61.63
2018-09-14T09:35:58.722Z,64.00
2018-09-14T09:38:27.404Z,62.03
2018-09-14T09:40:55.915Z,64.94
2018-09-14T09:43:24.500Z,60.84
2018-09-14T09:45:53.010Z,60.09
2018-09-14T09:48:21.497Z,60.02
2018-09-14T09:50:50.038Z,61.92
2018-09-14T09:53:18.501Z,61.01
2018-09-14T09:55:47.039Z,59.95
2018-09-14T09:58:16.695Z,61.88
2018-09-14T10:00:50.631Z,57.54
2018-09-14T10:03:24.573Z,54.30
2018-09-14T10:06:01.180Z,55.52
2018-09-14T10:08:30.200Z,56.25
2018-09-14T10:10:58.638Z,54.20
2018-09-14T10:13:27.892Z,55.04
2018-09-14T10:15:56.462Z,52.22
2018-09-14T10:18:25.074Z,52.31
2018-09-14T10:20:53.785Z,51.36
2018-09-14T10:23:23.733Z,50.30
2018-09-14T10:25:52.250Z,46.08
2018-09-14T10:28:21.282Z,48.37
2018-09-14T10:30:50.139Z,49.13
2018-09-14T10:33:18.793Z,48.63
2018-09-14T10:35:47.903Z,52.78
2018-09-14T10:38:16.474Z,52.82
2018-09-14T10:40:45.458Z,52.40
2018-09-14T10:43:14.677Z,54.17
2018-09-14T10:45:43.253Z,53.58
2018-09-14T10:48:13.645Z,53.05
2018-09-14T10:50:42.238Z,50.80
2018-09-14T10:53:10.895Z,48.88
2018-09-14T10:55:40.100Z,49.76
2018-09-14T10:58:08.592Z,48.96
2018-09-14T11:00:37.101Z,46.48
2018-09-14T11:03:05.650Z,52.40
2018-09-14T11:05:35.585Z,49.61
2018-09-14T11:08:05.559Z,46.64
2018-09-14T11:10:34.180Z,45.07
2018-09-14T11:13:02.735Z,47.10
2018-09-14T11:15:31.786Z,46.12
2018-09-14T11:18:00.753Z,48.03
2018-09-14T11:20:29.649Z,49.99
2018-09-14T11:22:58.168Z,51.72
2018-09-14T11:25:26.891Z,50.92
2018-09-14T11:27:55.698Z,50.37
2018-09-14T11:30:24.206Z,47.46
2018-09-14T11:32:52.795Z,47.92
2018-09-14T11:35:21.316Z,50.80
2018-09-14T11:37:50.773Z,48.12
2018-09-14T11:40:19.155Z,49.79
2018-09-14T11:42:47.689Z,51.78
2018-09-14T11:45:16.266Z,51.36
2018-09-14T11:47:44.749Z,51.38
2018-09-14T11:50:13.510Z,52.20
2018-09-14T11:52:42.047Z,53.82
2018-09-14T11:55:10.555Z,56.13
2018-09-14T11:57:39.229Z,53.68
2018-09-14T12:00:07.909Z,53.02
2018-09-14T12:02:36.996Z,51.78
2018-09-14T12:05:05.703Z,52.92
2018-09-14T12:07:37.157Z,54.78
2018-09-14T12:10:06.011Z,55.49
2018-09-14T12:12:35.532Z,54.88
2018-09-14T12:15:04.252Z,53.46
2018-09-14T12:17:33.623Z,51.97
2018-09-14T12:20:02.178Z,48.77
2018-09-14T12:22:30.620Z,50.72
2018-09-14T12:24:59.205Z,52.86
2018-09-14T12:27:27.807Z,52.38
2018-09-14T12:29:56.295Z,50.30
2018-09-14T12:32:24.810Z,48.22
2018-09-14T12:34:53.549Z,49.18
2018-09-14T12:37:22.102Z,53.03
2018-09-14T12:39:50.696Z,52.64
2018-09-14T12:42:19.291Z,52.78
2018-09-14T12:44:47.843Z,52.22
2018-09-14T12:47:17.108Z,54.25
2018-09-14T12:49:45.592Z,54.08
2018-09-14T12:52:14.881Z,52.67
2018-09-14T12:54:43.432Z,52.30
2018-09-14T12:57:11.955Z,51.89
2018-09-14T12:59:41.143Z,53.96
2018-09-14T13:02:09.687Z,52.04
2018-09-14T13:04:38.192Z,52.51
2018-09-14T13:07:07.544Z,51.38
2018-09-14T13:09:37.509Z,51.82
2018-09-14T13:12:06.195Z,50.91
2018-09-14T13:14:36.219Z,50.30
2018-09-14T13:17:04.728Z,52.69
2018-09-14T13:19:33.306Z,50.71
2018-09-14T13:22:01.868Z,51.64
2018-09-14T13:24:30.414Z,50.62
2018-09-14T13:26:58.943Z,50.47
2018-09-14T13:29:27.534Z,52.76
2018-09-14T13:31:56.946Z,52.04
2018-09-14T13:34:25.483Z,51.32
2018-09-14T13:36:54.160Z,51.30
2018-09-14T13:39:23.266Z,51.23
2018-09-14T13:41:51.812Z,51.63
2018-09-14T13:44:21.019Z,52.78
2018-09-14T13:46:49.565Z,52.47
2018-09-14T13:49:18.049Z,51.84
2018-09-14T13:51:46.608Z,50.34
2018-09-14T13:54:16.495Z,51.27
2018-09-14T13:56:46.344Z,52.02
2018-09-14T13:59:15.042Z,50.74
2018-09-14T14:01:43.791Z,51.19
2018-09-14T14:04:13.120Z,51.50
2018-09-14T14:06:41.760Z,51.07
2018-09-14T14:09:12.169Z,50.30
2018-09-14T14:11:41.811Z,48.97
2018-09-14T14:14:11.188Z,51.35
2018-09-14T14:16:41.589Z,50.36
2018-09-14T14:19:10.681Z,49.99
2018-09-14T14:21:40.738Z,50.06
2018-09-14T14:24:11.420Z,52.02
2018-09-14T14:26:40.192Z,51.88
2018-09-14T14:29:08.719Z,50.94
2018-09-14T14:31:37.233Z,51.68
2018-09-14T14:34:06.312Z,51.23
2018-09-14T14:36:35.432Z,52.31
2018-09-14T14:39:05.089Z,52.54
2018-09-14T14:41:34.379Z,52.25
2018-09-14T14:44:03.512Z,50.82
2018-09-14T14:46:32.020Z,51.67
2018-09-14T14:49:00.580Z,51.62
2018-09-14T14:51:29.152Z,52.71
2018-09-14T14:53:57.699Z,52.49
2018-09-14T14:56:26.427Z,53.58
2018-09-14T14:58:55.408Z,54.79
2018-09-14T15:01:25.730Z,53.72
2018-09-14T15:03:55.811Z,54.23
2018-09-14T15:06:24.532Z,54.27
2018-09-14T15:08:53.241Z,54.78
2018-09-14T15:11:22.387Z,55.06
2018-09-14T15:13:50.907Z,55.41
2018-09-14T15:16:19.622Z,53.06
2018-09-14T15:18:48.213Z,54.06
2018-09-14T15:21:16.715Z,55.22
2018-09-14T15:23:47.000Z,54.94
2018-09-14T15:26:15.520Z,54.83
2018-09-14T15:28:44.067Z,54.33
2018-09-14T15:31:13.547Z,55.96
2018-09-14T15:33:42.135Z,56.19
2018-09-14T15:36:10.723Z,55.37
2018-09-14T15:38:39.339Z,55.54
2018-09-14T15:41:07.835Z,56.43
2018-09-14T15:43:36.514Z,55.53
2018-09-14T15:46:05.082Z,56.70
2018-09-14T15:48:33.663Z,57.18
2018-09-14T15:51:02.788Z,58.21
2018-09-14T15:53:32.511Z,57.19
2018-09-14T15:56:01.152Z,58.34
2018-09-14T15:58:29.816Z,57.03
2018-09-14T16:00:59.677Z,56.76
2018-09-14T16:03:28.236Z,58.07
2018-09-14T16:05:56.822Z,58.85
2018-09-14T16:08:25.900Z,58.00
2018-09-14T16:10:54.514Z,58.75
2018-09-14T16:13:23.023Z,57.69
2018-09-14T16:15:51.644Z,59.50
2018-09-14T16:18:20.740Z,58.26
2018-09-14T16:20:49.233Z,59.10
2018-09-14T16:23:17.747Z,59.24
2018-09-14T16:25:46.223Z,61.74
2018-09-14T16:28:14.761Z,62.43
2018-09-14T16:30:44.679Z,62.57
2018-09-14T16:33:13.377Z,63.15
2018-09-14T16:35:41.820Z,64.01
2018-09-14T16:38:10.376Z,63.71
2018-09-14T16:40:39.113Z,62.34
2018-09-14T16:43:07.628Z,63.71
2018-09-14T16:45:36.747Z,63.36
2018-09-14T16:48:05.231Z,62.79
2018-09-14T16:50:33.778Z,61.39
2018-09-14T16:53:02.551Z,59.66
2018-09-14T16:55:32.004Z,60.45
2018-09-14T16:58:00.503Z,60.79
2018-09-14T17:00:29.119Z,60.40
2018-09-14T17:02:57.736Z,60.65
2018-09-14T17:05:26.215Z,59.58
2018-09-14T17:07:55.791Z,59.95
2018-09-14T17:10:26.473Z,60.14
2018-09-14T17:12:55.062Z,60.88
2018-09-14T17:15:23.575Z,61.67
2018-09-14T17:17:52.262Z,62.29
2018-09-14T17:20:21.038Z,61.49
2018-09-14T17:22:50.519Z,62.34
2018-09-14T17:25:19.272Z,62.66
2018-09-14T17:27:47.869Z,62.24
2018-09-14T17:30:16.410Z,62.71
2018-09-14T17:32:45.464Z,62.18
2018-09-14T17:35:14.909Z,62.06
2018-09-14T17:37:43.626Z,62.93
2018-09-14T17:40:12.162Z,61.22
2018-09-14T17:42:41.334Z,62.44
2018-09-14T17:45:10.054Z,62.87
2018-09-14T17:47:39.396Z,63.57
2018-09-14T17:50:08.091Z,64.64
2018-09-14T17:52:36.787Z,65.04
2018-09-14T17:55:05.280Z,66.72
2018-09-14T17:57:34.102Z,66.72
2018-09-14T18:00:03.434Z,68.45
2018-09-14T18:02:32.003Z,69.08
2018-09-14T18:05:00.535Z,70.31
2018-09-14T18:07:29.017Z,70.39
2018-09-14T18:09:57.480Z,69.74
2018-09-14T18:12:25.958Z,70.58
2018-09-14T18:14:54.989Z,70.62
2018-09-14T18:17:24.404Z,71.23
2018-09-14T18:19:53.455Z,72.15
2018-09-14T18:22:22.116Z,70.72
2018-09-14T18:24:50.641Z,70.60
2018-09-14T18:27:19.276Z,69.68
2018-09-14T18:29:47.820Z,69.54
2018-09-14T18:32:16.293Z,69.42
2018-09-14T18:34:44.771Z,68.50
2018-09-14T18:37:13.920Z,69.22
2018-09-14T18:39:42.559Z,69.44
2018-09-14T18:42:11.035Z,71.19
2018-09-14T18:44:39.509Z,72.32
2018-09-14T18:47:08.095Z,71.46
2018-09-14T18:49:36.657Z,71.98
2018-09-14T18:52:05.228Z,72.78
2018-09-14T18:54:34.771Z,72.72
2018-09-14T18:57:03.889Z,72.41
2018-09-14T18:59:32.488Z,70.61
2018-09-14T19:02:01.412Z,71.07
2018-09-14T19:04:29.849Z,69.65
2018-09-14T19:06:58.515Z,70.26
2018-09-14T19:09:27.449Z,70.29
2018-09-14T19:11:55.987Z,72.10
2018-09-14T19:14:24.552Z,73.45
2018-09-14T19:16:53.667Z,73.79
2018-09-14T19:19:23.164Z,73.50
2018-09-14T19:21:52.060Z,73.83
2018-09-14T19:24:20.536Z,74.15
2018-09-14T19:26:49.019Z,73.67
2018-09-14T19:29:17.455Z,73.83
2018-09-14T19:31:46.091Z,75.75
2018-09-14T19:34:15.274Z,75.14
2018-09-14T19:36:43.747Z,75.61
2018-09-14T19:39:14.430Z,75.82
2018-09-14T19:41:42.939Z,76.87
2018-09-14T19:44:11.386Z,76.88
2018-09-14T19:46:39.875Z,77.00
2018-09-14T19:49:08.376Z,76.41
2018-09-14T19:51:37.744Z,76.90
2018-09-14T19:54:06.680Z,77.02
2018-09-14T19:56:36.155Z,76.89
2018-09-14T19:59:04.708Z,76.89
2018-09-14T20:01:33.290Z,77.91
2018-09-14T20:04:01.823Z,78.51
2018-09-14T20:06:30.304Z,78.90
2018-09-14T20:08:58.877Z,78.18
2018-09-14T20:11:27.452Z,78.14
2018-09-14T20:13:55.964Z,77.99
2018-09-14T20:16:24.424Z,78.22
2018-09-14T20:18:53.724Z,78.61
2018-09-14T20:21:22.222Z,78.26
2018-09-14T20:23:51.528Z,79.28
2018-09-14T20:26:20.063Z,79.28
2018-09-14T20:28:48.676Z,79.67
2018-09-14T20:31:18.260Z,79.66
2018-09-14T20:33:46.771Z,79.63
2018-09-14T20:36:15.565Z,80.44
2018-09-14T20:38:44.015Z,79.44
2018-09-14T20:41:12.555Z,80.29
2018-09-14T20:43:41.612Z,81.37
2018-09-14T20:46:10.059Z,80.55
2018-09-14T20:48:38.752Z,81.88
2018-09-14T20:51:07.246Z,81.08
2018-09-14T20:53:36.459Z,80.33
2018-09-14T20:56:05.007Z,80.15
2018-09-14T20:58:34.232Z,80.80
2018-09-14T21:01:02.706Z,81.28
2018-09-14T21:03:32.039Z,81.74
2018-09-14T21:06:00.531Z,81.50
2018-09-14T21:08:29.142Z,81.80
2018-09-14T21:10:57.631Z,80.97
2018-09-14T21:13:26.146Z,80.05
2018-09-14T21:15:55.411Z,81.41
2018-09-14T21:18:25.300Z,80.68
2018-09-14T21:20:54.228Z,80.62
2018-09-14T21:23:22.811Z,80.48
2018-09-14T21:25:51.540Z,79.77
2018-09-14T21:28:20.039Z,80.09
2018-09-14T21:30:49.430Z,80.43
2018-09-14T21:33:18.610Z,79.88
2018-09-14T21:35:47.127Z,81.15
2018-09-14T21:38:15.650Z,81.17
2018-09-14T21:40:44.097Z,81.25
2018-09-14T21:43:12.579Z,81.00
2018-09-14T21:45:41.093Z,80.73
2018-09-14T21:48:09.703Z,80.67
2018-09-14T21:50:38.819Z,81.48
2018-09-14T21:53:07.440Z,82.59
2018-09-14T21:55:35.926Z,82.95
2018-09-14T21:58:05.047Z,81.91
2018-09-14T22:00:38.770Z,83.35
2018-09-14T22:03:07.280Z,81.56
2018-09-14T22:05:35.864Z,82.63
2018-09-14T22:08:04.823Z,82.93
2018-09-14T22:10:33.672Z,82.26
2018-09-14T22:13:02.184Z,82.54
2018-09-14T22:15:30.695Z,81.58
2018-09-14T22:17:59.159Z,82.07
2018-09-14T22:20:27.643Z,82.07
2018-09-14T22:22:56.644Z,81.34
2018-09-14T22:25:25.089Z,81.66
2018-09-14T22:27:53.617Z,82.61
2018-09-14T22:30:22.132Z,83.40
2018-09-14T22:32:50.571Z,83.03
2018-09-14T22:35:19.086Z,82.50
2018-09-14T22:37:47.584Z,83.32
2018-09-14T22:40:16.269Z,82.96
2018-09-14T22:42:44.921Z,83.45
2018-09-14T22:45:13.680Z,83.06
2018-09-14T22:47:42.148Z,82.95
2018-09-14T22:50:10.631Z,83.98
2018-09-14T22:52:39.861Z,83.23
2018-09-14T22:55:09.350Z,82.77
2018-09-14T22:57:37.911Z,82.61
2018-09-14T23:00:07.837Z,82.95
2018-09-14T23:02:36.398Z,82.63
2018-09-14T23:05:05.386Z,83.15
2018-09-14T23:07:34.562Z,83.04
2018-09-14T23:10:03.171Z,82.49
2018-09-14T23:12:32.374Z,82.97
2018-09-14T23:15:01.580Z,83.49
2018-09-14T23:17:30.033Z,82.80
2018-09-14T23:19:58.528Z,83.09
2018-09-14T23:22:27.134Z,83.39
2018-09-14T23:24:55.828Z,83.18
2018-09-14T23:27:24.338Z,83.19
2018-09-14T23:29:53.037Z,83.81
2018-09-14T23:32:22.292Z,84.76
2018-09-14T23:34:50.807Z,83.92
2018-09-14T23:37:19.699Z,84.54
2018-09-14T23:39:48.228Z,85.13
2018-09-14T23:42:16.787Z,85.74
2018-09-14T23:44:45.315Z,85.96
2018-09-14T23:47:15.469Z,86.55
2018-09-14T23:49:44.123Z,84.86
2018-09-14T23:52:13.324Z,86.16
2018-09-14T23:54:41.888Z,86.13
2018-09-14T23:57:10.620Z,86.28
2018-09-14T23:59:39.808Z,86.24
